Estación Meteorológica Peña el Pijo (Robertgarden) [ 10/16/18 02:59:18 CEST ]

Fecha Hora Presion(HPa) Temp (°C) Humedad % Rocio (°C) Viento ( m/s) Direccion Lluvia 1Hora(mm) Lluvia 24H(mm) LLuvia Total(mm)
2018-Aug-13 01:01:44 1010.500 18.3 75 13.8         287.49
2018-Aug-13 02:01:44 1010.800 17.9 74 13.2         287.49
2018-Aug-13 03:01:20 1010.600 16.6 76 12.3         287.49
2018-Aug-13 04:01:23 1010.200 16.2 77 12.2         287.49
2018-Aug-13 05:01:52 1009.900 15.8 78 12.0         287.49
2018-Aug-13 06:02:03 1009.400 15.5 79 11.9         287.49
2018-Aug-13 07:01:39 1009.600 15.1 81 11.9         287.49
2018-Aug-13 08:01:38 1010.200 14.9 82 11.9         287.49
2018-Aug-13 09:01:46 1010.100 18.6 84 15.8         287.49
2018-Aug-13 10:01:38 1010.400 26.2 61 18.1         287.49
2018-Aug-13 11:01:54 1010.500 26.9 47 14.6         287.49
2018-Aug-13 12:01:46 1010.200 28.9 38 13.1         287.49
2018-Aug-13 13:01:32 1010.100 32.2 32 12.9         287.49
2018-Aug-13 14:01:32 1009.600 32.2 32 13.1         287.49
2018-Aug-13 15:01:57 1009.300 33.3 28 12.2         287.49
2018-Aug-13 16:01:32 1009.100 34.2 27 12.3         287.49
2018-Aug-13 17:01:44 1008.600 34.6 24 10.8         287.49
2018-Aug-13 18:01:49 1008.400 32.9 24 9.4         287.49
2018-Aug-13 19:01:45 1008.500 31.9 25 9.2         287.49
2018-Aug-13 20:01:39 1008.700 28.8 26 7.2         287.49
2018-Aug-13 21:01:59 1008.900 24.7 36 8.5         287.49
2018-Aug-13 22:02:03 1009.400 20.4 46 8.3         287.49
2018-Aug-13 23:01:52 1009.900 19.3 49 8.3         287.49

Temperatura Máxima:34°    Temperatura Mínima:14°
Presión Máxima:1010.800 Hpa    Presión Mínima:1008.400 Hpa


Volver